SWA316 KIND-KATL
Flight info
| Callsign | SWA316 |
|---|---|
| Flight time | N/A |
| Altitude | 36000 |
| Route | DAWNN1 MYS HITMN/N0442F350 NEWBB IHAVE MTHEW CHPPR1 |
| Aircraft | B738/M-SDE2E3FGHIRWXY/LB1 |
Departure
| Time | 2026-05-04 00:58 |
|---|---|
| Airport | Indianapolis International Airport (KIND) |
Arrival
| Time | N/A |
|---|---|
| Airport | Hartsfield Jackson Atlanta International Airport (KATL) |
| Time | Latitude | Longitude | Altitude | Speed | Heading |
|---|---|---|---|---|---|
| 2026-05-04 00:34 | 39.71788 | -86.29600 | 777 ft | 0 kts | 309° |
| 2026-05-04 00:48 | 39.71782 | -86.29590 | 777 ft | 2 kts | 310° |
| 2026-05-04 00:49 | 39.71772 | -86.29575 | 777 ft | 2 kts | 309° |
| 2026-05-04 00:49 | 39.71763 | -86.29560 | 777 ft | 2 kts | 309° |
| 2026-05-04 00:49 | 39.71754 | -86.29545 | 777 ft | 1 kts | 309° |
| 2026-05-04 00:49 | 39.71744 | -86.29536 | 777 ft | 1 kts | 5° |
| 2026-05-04 00:50 | 39.71736 | -86.29540 | 777 ft | 0 kts | 44° |
| 2026-05-04 00:50 | 39.71731 | -86.29546 | 777 ft | 0 kts | 39° |
| 2026-05-04 00:54 | 39.71775 | -86.29501 | 777 ft | 14 kts | 44° |
| 2026-05-04 00:54 | 39.71834 | -86.29420 | 778 ft | 10 kts | 75° |
| 2026-05-04 00:54 | 39.71849 | -86.29340 | 780 ft | 7 kts | 60° |
| 2026-05-04 00:54 | 39.71932 | -86.29224 | 782 ft | 37 kts | 46° |
| 2026-05-04 00:55 | 39.72118 | -86.28986 | 786 ft | 35 kts | 45° |
| 2026-05-04 00:55 | 39.72272 | -86.28757 | 790 ft | 30 kts | 73° |
| 2026-05-04 00:55 | 39.72399 | -86.28592 | 793 ft | 23 kts | 360° |
| 2026-05-04 00:55 | 39.72499 | -86.28728 | 792 ft | 23 kts | 300° |
| 2026-05-04 00:56 | 39.72662 | -86.29067 | 789 ft | 40 kts | 304° |
| 2026-05-04 00:56 | 39.72749 | -86.29212 | 786 ft | 16 kts | 314° |
| 2026-05-04 00:56 | 39.72791 | -86.29333 | 783 ft | 15 kts | 258° |
| 2026-05-04 00:56 | 39.72722 | -86.29435 | 781 ft | 18 kts | 223° |
| 2026-05-04 00:57 | 39.72481 | -86.29742 | 775 ft | 77 kts | 226° |
| 2026-05-04 00:57 | 39.72166 | -86.30150 | 768 ft | 112 kts | 223° |
| 2026-05-04 00:57 | 39.71228 | -86.31336 | 752 ft | 164 kts | 225° |
| 2026-05-04 00:57 | 39.70381 | -86.32446 | 1173 ft | 184 kts | 229° |
| 2026-05-04 00:58 | 39.69586 | -86.33657 | 2344 ft | 177 kts | 231° |
| 2026-05-04 00:58 | 39.69088 | -86.34907 | 3705 ft | 159 kts | 258° |
| 2026-05-04 00:58 | 39.69175 | -86.36402 | 4417 ft | 176 kts | 272° |
| 2026-05-04 00:58 | 39.69039 | -86.37933 | 4922 ft | 179 kts | 244° |
| 2026-05-04 00:59 | 39.68042 | -86.39069 | 4970 ft | 217 kts | 205° |
| 2026-05-04 00:59 | 39.66414 | -86.39085 | 4985 ft | 250 kts | 167° |
| 2026-05-04 00:59 | 39.64815 | -86.37929 | 5008 ft | 278 kts | 150° |
| 2026-05-04 00:59 | 39.63279 | -86.36388 | 4978 ft | 282 kts | 148° |
| 2026-05-04 01:00 | 39.61675 | -86.34928 | 5121 ft | 283 kts | 157° |
| 2026-05-04 01:00 | 39.59911 | -86.33850 | 5842 ft | 281 kts | 168° |
| 2026-05-04 01:00 | 39.58016 | -86.33235 | 6488 ft | 280 kts | 179° |
| 2026-05-04 01:00 | 39.56093 | -86.32995 | 7156 ft | 281 kts | 185° |
| 2026-05-04 01:01 | 39.54114 | -86.32898 | 7798 ft | 287 kts | 186° |
| 2026-05-04 01:01 | 39.52137 | -86.32809 | 8475 ft | 291 kts | 185° |
| 2026-05-04 01:01 | 39.50757 | -86.32732 | 8883 ft | 296 kts | 185° |
| 2026-05-04 01:01 | 39.48002 | -86.32539 | 9740 ft | 302 kts | 184° |
| 2026-05-04 01:02 | 39.45886 | -86.32378 | 10277 ft | 311 kts | 184° |
| 2026-05-04 01:02 | 39.43640 | -86.32217 | 10417 ft | 334 kts | 183° |
| 2026-05-04 01:02 | 39.41255 | -86.32048 | 10594 ft | 354 kts | 183° |
| 2026-05-04 01:02 | 39.38761 | -86.31864 | 10982 ft | 366 kts | 183° |
| 2026-05-04 01:03 | 39.36214 | -86.31667 | 11646 ft | 371 kts | 182° |
| 2026-05-04 01:03 | 39.34510 | -86.31523 | 12123 ft | 373 kts | 182° |
| 2026-05-04 01:03 | 39.31006 | -86.31157 | 13055 ft | 379 kts | 181° |
| 2026-05-04 01:03 | 39.28376 | -86.30844 | 13722 ft | 383 kts | 181° |
| 2026-05-04 01:04 | 39.25716 | -86.30524 | 14426 ft | 387 kts | 181° |
| 2026-05-04 01:04 | 39.23029 | -86.30205 | 15062 ft | 392 kts | 181° |
| 2026-05-04 01:04 | 39.20340 | -86.29894 | 15769 ft | 395 kts | 182° |
| 2026-05-04 01:04 | 39.17561 | -86.29582 | 16431 ft | 399 kts | 182° |
| 2026-05-04 01:05 | 39.14790 | -86.29274 | 16991 ft | 406 kts | 182° |
| 2026-05-04 01:05 | 39.11986 | -86.28965 | 17639 ft | 409 kts | 183° |
| 2026-05-04 01:05 | 39.09113 | -86.28649 | 18208 ft | 414 kts | 183° |
| 2026-05-04 01:05 | 39.06220 | -86.28329 | 18900 ft | 417 kts | 183° |
| 2026-05-04 01:06 | 39.04317 | -86.28117 | 19271 ft | 420 kts | 183° |
| 2026-05-04 01:06 | 39.00408 | -86.27685 | 20054 ft | 425 kts | 183° |
| 2026-05-04 01:06 | 38.98433 | -86.27467 | 20458 ft | 427 kts | 183° |
| 2026-05-04 01:06 | 38.94492 | -86.27032 | 21318 ft | 429 kts | 183° |
| 2026-05-04 01:07 | 38.91513 | -86.26700 | 21923 ft | 431 kts | 183° |
| 2026-05-04 01:07 | 38.88504 | -86.26365 | 22557 ft | 432 kts | 183° |
| 2026-05-04 01:07 | 38.85522 | -86.26038 | 22992 ft | 438 kts | 183° |
| 2026-05-04 01:07 | 38.82463 | -86.25703 | 23490 ft | 441 kts | 183° |
| 2026-05-04 01:08 | 38.80449 | -86.25482 | 23872 ft | 442 kts | 182° |
| 2026-05-04 01:08 | 38.77361 | -86.25142 | 24427 ft | 443 kts | 183° |
| 2026-05-04 01:08 | 38.73244 | -86.24690 | 25051 ft | 448 kts | 182° |
| 2026-05-04 01:08 | 38.70115 | -86.24345 | 25601 ft | 449 kts | 183° |
| 2026-05-04 01:09 | 38.67003 | -86.24004 | 26058 ft | 451 kts | 182° |
| 2026-05-04 01:09 | 38.63864 | -86.23659 | 26525 ft | 453 kts | 183° |
| 2026-05-04 01:09 | 38.60697 | -86.23312 | 26845 ft | 459 kts | 182° |
| 2026-05-04 01:09 | 38.57494 | -86.22968 | 27193 ft | 463 kts | 183° |
| 2026-05-04 01:10 | 38.54274 | -86.22736 | 27538 ft | 464 kts | 186° |
| 2026-05-04 01:10 | 38.51053 | -86.22694 | 27992 ft | 462 kts | 188° |
| 2026-05-04 01:10 | 38.47844 | -86.22774 | 28454 ft | 462 kts | 189° |
| 2026-05-04 01:10 | 38.44598 | -86.22913 | 28793 ft | 464 kts | 190° |
| 2026-05-04 01:11 | 38.41388 | -86.23061 | 29177 ft | 466 kts | 190° |
| 2026-05-04 01:11 | 38.38118 | -86.23197 | 29531 ft | 469 kts | 190° |
| 2026-05-04 01:11 | 38.34837 | -86.23324 | 29797 ft | 473 kts | 189° |
| 2026-05-04 01:11 | 38.31565 | -86.23437 | 30124 ft | 475 kts | 189° |
| 2026-05-04 01:12 | 38.28258 | -86.23538 | 30509 ft | 476 kts | 189° |
| 2026-05-04 01:12 | 38.24916 | -86.23628 | 30932 ft | 476 kts | 189° |
| 2026-05-04 01:12 | 38.21582 | -86.23710 | 31389 ft | 475 kts | 189° |
| 2026-05-04 01:12 | 38.18308 | -86.23789 | 31765 ft | 475 kts | 189° |
| 2026-05-04 01:13 | 38.14976 | -86.23868 | 32121 ft | 475 kts | 189° |
| 2026-05-04 01:13 | 38.11700 | -86.23941 | 32518 ft | 474 kts | 189° |
| 2026-05-04 01:13 | 38.08375 | -86.24016 | 32840 ft | 475 kts | 189° |
| 2026-05-04 01:13 | 38.05056 | -86.24091 | 33187 ft | 475 kts | 189° |
| 2026-05-04 01:14 | 38.01734 | -86.24168 | 33459 ft | 477 kts | 189° |
| 2026-05-04 01:14 | 37.98442 | -86.24245 | 33706 ft | 478 kts | 189° |
| 2026-05-04 01:14 | 37.95048 | -86.24322 | 34130 ft | 475 kts | 189° |
| 2026-05-04 01:14 | 37.91753 | -86.24396 | 34530 ft | 473 kts | 189° |
| 2026-05-04 01:15 | 37.88454 | -86.24473 | 34791 ft | 473 kts | 190° |
| 2026-05-04 01:15 | 37.85130 | -86.24591 | 35055 ft | 470 kts | 191° |
| 2026-05-04 01:15 | 37.81829 | -86.24792 | 35283 ft | 468 kts | 192° |
| 2026-05-04 01:15 | 37.78586 | -86.25116 | 35434 ft | 466 kts | 194° |
| 2026-05-04 01:16 | 37.75386 | -86.25600 | 35605 ft | 463 kts | 197° |
| 2026-05-04 01:16 | 37.73259 | -86.26031 | 35738 ft | 460 kts | 199° |
| 2026-05-04 01:16 | 37.69087 | -86.27181 | 35978 ft | 454 kts | 204° |
| 2026-05-04 01:16 | 37.66032 | -86.28331 | 36105 ft | 448 kts | 208° |
| 2026-05-04 01:17 | 37.63158 | -86.29712 | 36357 ft | 438 kts | 212° |
| 2026-05-04 01:17 | 37.60417 | -86.31362 | 36683 ft | 427 kts | 217° |
| 2026-05-04 01:17 | 37.58714 | -86.32590 | 36857 ft | 420 kts | 221° |
| 2026-05-04 01:17 | 37.55561 | -86.35420 | 37049 ft | 412 kts | 229° |
| 2026-05-04 01:18 | 37.53483 | -86.37852 | 37168 ft | 404 kts | 235° |
| 2026-05-04 01:18 | 37.51679 | -86.40546 | 37328 ft | 396 kts | 242° |
| 2026-05-04 01:18 | 37.50038 | -86.43301 | 37010 ft | 409 kts | 236° |
| 2026-05-04 01:18 | 37.47836 | -86.45702 | 36593 ft | 428 kts | 219° |
| 2026-05-04 01:19 | 37.45010 | -86.47089 | 36206 ft | 450 kts | 198° |
| 2026-05-04 01:19 | 37.42892 | -86.47289 | 36077 ft | 461 kts | 185° |
| 2026-05-04 01:19 | 37.39676 | -86.46783 | 36039 ft | 471 kts | 176° |
| 2026-05-04 01:20 | 37.32152 | -86.44483 | 36032 ft | 478 kts | 174° |
| 2026-05-04 01:20 | 37.25597 | -86.42852 | 36033 ft | 476 kts | 178° |
| 2026-05-04 01:21 | 37.19100 | -86.41730 | 36006 ft | 472 kts | 181° |
| 2026-05-04 01:21 | 37.12569 | -86.40825 | 36024 ft | 471 kts | 181° |
| 2026-05-04 01:22 | 37.06062 | -86.39976 | 36047 ft | 472 kts | 181° |
| 2026-05-04 01:22 | 36.99534 | -86.39119 | 36055 ft | 471 kts | 181° |
| 2026-05-04 01:23 | 36.92994 | -86.38251 | 36038 ft | 471 kts | 181° |
| 2026-05-04 01:23 | 36.86471 | -86.37386 | 36032 ft | 470 kts | 181° |
| 2026-05-04 01:24 | 36.79989 | -86.36528 | 36047 ft | 470 kts | 181° |
| 2026-05-04 01:24 | 36.74533 | -86.35802 | 36045 ft | 470 kts | 181° |
| 2026-05-04 01:25 | 36.67997 | -86.34937 | 36035 ft | 472 kts | 181° |
| 2026-05-04 01:25 | 36.61427 | -86.34070 | 36053 ft | 471 kts | 181° |
| 2026-05-04 01:26 | 36.53798 | -86.33064 | 36039 ft | 471 kts | 181° |
| 2026-05-04 01:26 | 36.48360 | -86.32349 | 36048 ft | 472 kts | 181° |
| 2026-05-04 01:27 | 36.40755 | -86.31346 | 36065 ft | 469 kts | 181° |
| 2026-05-04 01:27 | 36.35347 | -86.30634 | 36070 ft | 469 kts | 181° |
| 2026-05-04 01:28 | 36.28817 | -86.29784 | 36065 ft | 471 kts | 181° |
| 2026-05-04 01:28 | 36.21162 | -86.28783 | 36055 ft | 471 kts | 181° |
| 2026-05-04 01:29 | 36.14665 | -86.27932 | 36068 ft | 468 kts | 181° |
| 2026-05-04 01:29 | 36.09224 | -86.27220 | 36078 ft | 469 kts | 180° |
| 2026-05-04 01:30 | 36.01631 | -86.26135 | 36065 ft | 475 kts | 176° |
| 2026-05-04 01:30 | 35.96172 | -86.25655 | 36057 ft | 457 kts | 198° |
| 2026-05-04 01:30 | 35.93260 | -86.26838 | 36075 ft | 436 kts | 217° |
| 2026-05-04 01:31 | 35.90242 | -86.29966 | 36101 ft | 416 kts | 237° |
| 2026-05-04 01:31 | 35.87470 | -86.34817 | 36077 ft | 410 kts | 245° |
| 2026-05-04 01:32 | 35.84499 | -86.40842 | 36073 ft | 409 kts | 246° |
| 2026-05-04 01:32 | 35.81581 | -86.46831 | 36089 ft | 407 kts | 246° |
| 2026-05-04 01:33 | 35.78651 | -86.52858 | 36074 ft | 407 kts | 246° |
| 2026-05-04 01:33 | 35.75497 | -86.58632 | 35934 ft | 422 kts | 232° |
| 2026-05-04 01:33 | 35.73037 | -86.60807 | 35525 ft | 443 kts | 211° |
| 2026-05-04 01:34 | 35.70000 | -86.61785 | 35219 ft | 461 kts | 190° |
| 2026-05-04 01:34 | 35.66763 | -86.61413 | 34881 ft | 480 kts | 168° |
| 2026-05-04 01:34 | 35.63675 | -86.59662 | 34550 ft | 494 kts | 147° |
| 2026-05-04 01:34 | 35.61196 | -86.56750 | 34177 ft | 500 kts | 126° |
| 2026-05-04 01:35 | 35.59602 | -86.53007 | 33798 ft | 498 kts | 105° |
| 2026-05-04 01:35 | 35.59039 | -86.48851 | 33439 ft | 490 kts | 89° |
| 2026-05-04 01:35 | 35.58930 | -86.44633 | 33111 ft | 490 kts | 90° |
| 2026-05-04 01:36 | 35.58217 | -86.36369 | 33079 ft | 491 kts | 100° |
| 2026-05-04 01:36 | 35.57178 | -86.32398 | 33067 ft | 494 kts | 115° |
| 2026-05-04 01:36 | 35.55350 | -86.28777 | 33071 ft | 493 kts | 131° |
| 2026-05-04 01:36 | 35.52925 | -86.25822 | 33121 ft | 490 kts | 144° |
| 2026-05-04 01:37 | 35.50105 | -86.23466 | 33089 ft | 492 kts | 152° |
| 2026-05-04 01:37 | 35.44075 | -86.19323 | 33067 ft | 496 kts | 153° |
| 2026-05-04 01:38 | 35.38280 | -86.14661 | 33096 ft | 498 kts | 145° |
| 2026-05-04 01:38 | 35.32860 | -86.09333 | 33102 ft | 497 kts | 142° |
| 2026-05-04 01:39 | 35.26694 | -86.03040 | 33105 ft | 497 kts | 142° |
| 2026-05-04 01:39 | 35.22216 | -85.98593 | 33117 ft | 497 kts | 143° |
| 2026-05-04 01:40 | 35.16801 | -85.93359 | 33101 ft | 497 kts | 144° |
| 2026-05-04 01:40 | 35.11368 | -85.88173 | 33112 ft | 495 kts | 144° |
| 2026-05-04 01:41 | 35.04959 | -85.82079 | 33128 ft | 494 kts | 143° |
| 2026-05-04 01:41 | 35.00464 | -85.77806 | 33105 ft | 492 kts | 143° |
| 2026-05-04 01:42 | 34.95070 | -85.72684 | 33111 ft | 492 kts | 143° |
| 2026-05-04 01:42 | 34.92345 | -85.70098 | 32905 ft | 490 kts | 144° |
| 2026-05-04 01:42 | 34.89671 | -85.67561 | 32501 ft | 481 kts | 143° |
| 2026-05-04 01:42 | 34.86250 | -85.64310 | 31992 ft | 463 kts | 143° |
| 2026-05-04 01:43 | 34.83716 | -85.61903 | 31509 ft | 453 kts | 144° |
| 2026-05-04 01:43 | 34.82095 | -85.60368 | 31099 ft | 449 kts | 144° |
| 2026-05-04 01:43 | 34.79655 | -85.58059 | 30482 ft | 442 kts | 144° |
| 2026-05-04 01:43 | 34.77241 | -85.55778 | 29835 ft | 437 kts | 143° |
| 2026-05-04 01:44 | 34.74067 | -85.52779 | 28979 ft | 430 kts | 143° |
| 2026-05-04 01:44 | 34.72486 | -85.51286 | 28489 ft | 428 kts | 144° |
| 2026-05-04 01:44 | 34.70182 | -85.49111 | 27819 ft | 425 kts | 144° |
| 2026-05-04 01:44 | 34.67859 | -85.46919 | 27146 ft | 421 kts | 144° |
| 2026-05-04 01:45 | 34.65571 | -85.44762 | 26565 ft | 414 kts | 144° |
| 2026-05-04 01:45 | 34.63306 | -85.42628 | 25891 ft | 411 kts | 143° |
| 2026-05-04 01:45 | 34.58851 | -85.38432 | 24756 ft | 399 kts | 144° |
| 2026-05-04 01:46 | 34.56668 | -85.36379 | 24043 ft | 398 kts | 144° |
| 2026-05-04 01:46 | 34.54508 | -85.34350 | 23416 ft | 394 kts | 144° |
| 2026-05-04 01:46 | 34.52363 | -85.32336 | 22785 ft | 390 kts | 144° |
| 2026-05-04 01:46 | 34.50229 | -85.30334 | 22201 ft | 385 kts | 144° |
| 2026-05-04 01:47 | 34.48129 | -85.28364 | 21601 ft | 381 kts | 144° |
| 2026-05-04 01:47 | 34.45332 | -85.25743 | 20732 ft | 377 kts | 143° |
| 2026-05-04 01:47 | 34.43962 | -85.24461 | 20354 ft | 374 kts | 143° |
| 2026-05-04 01:47 | 34.41933 | -85.22562 | 19864 ft | 367 kts | 143° |
| 2026-05-04 01:48 | 34.39924 | -85.20682 | 19368 ft | 361 kts | 143° |
| 2026-05-04 01:48 | 34.37947 | -85.18834 | 18891 ft | 355 kts | 143° |
| 2026-05-04 01:48 | 34.36014 | -85.17027 | 18429 ft | 354 kts | 143° |
| 2026-05-04 01:48 | 34.33377 | -85.14566 | 17781 ft | 359 kts | 143° |
| 2026-05-04 01:49 | 34.32081 | -85.13355 | 17442 ft | 356 kts | 143° |
| 2026-05-04 01:49 | 34.30136 | -85.11543 | 16880 ft | 352 kts | 142° |
| 2026-05-04 01:49 | 34.28200 | -85.09738 | 16379 ft | 346 kts | 142° |
| 2026-05-04 01:49 | 34.26326 | -85.07991 | 15913 ft | 340 kts | 142° |
| 2026-05-04 01:50 | 34.24472 | -85.06265 | 15457 ft | 334 kts | 142° |
| 2026-05-04 01:50 | 34.22628 | -85.04549 | 15031 ft | 338 kts | 142° |
| 2026-05-04 01:50 | 34.20749 | -85.02803 | 14547 ft | 340 kts | 142° |
| 2026-05-04 01:50 | 34.18899 | -85.01085 | 14066 ft | 334 kts | 142° |
| 2026-05-04 01:51 | 34.17055 | -84.99372 | 13624 ft | 327 kts | 142° |
| 2026-05-04 01:51 | 34.15252 | -84.97699 | 13188 ft | 322 kts | 142° |
| 2026-05-04 01:51 | 34.13503 | -84.96072 | 13015 ft | 321 kts | 142° |
| 2026-05-04 01:51 | 34.11719 | -84.94389 | 13008 ft | 327 kts | 141° |
| 2026-05-04 01:52 | 34.09936 | -84.92695 | 12999 ft | 330 kts | 141° |
| 2026-05-04 01:52 | 34.08136 | -84.90984 | 12998 ft | 328 kts | 141° |
| 2026-05-04 01:52 | 34.06348 | -84.89287 | 13003 ft | 327 kts | 141° |
| 2026-05-04 01:52 | 34.04562 | -84.87595 | 13006 ft | 327 kts | 141° |
| 2026-05-04 01:53 | 34.02761 | -84.85892 | 13001 ft | 329 kts | 141° |
| 2026-05-04 01:53 | 34.00949 | -84.84180 | 12995 ft | 328 kts | 142° |
| 2026-05-04 01:53 | 33.99171 | -84.82502 | 12999 ft | 328 kts | 141° |
| 2026-05-04 01:53 | 33.97359 | -84.80791 | 13004 ft | 329 kts | 141° |
| 2026-05-04 01:54 | 33.95550 | -84.79085 | 13003 ft | 328 kts | 142° |
| 2026-05-04 01:54 | 33.93154 | -84.76828 | 13002 ft | 327 kts | 141° |
| 2026-05-04 01:54 | 33.91969 | -84.75712 | 13002 ft | 326 kts | 141° |
| 2026-05-04 01:54 | 33.90189 | -84.74035 | 13001 ft | 327 kts | 141° |
| 2026-05-04 01:55 | 33.88382 | -84.72334 | 12999 ft | 327 kts | 141° |
| 2026-05-04 01:55 | 33.86595 | -84.70654 | 13006 ft | 328 kts | 141° |
| 2026-05-04 01:55 | 33.84801 | -84.68967 | 13003 ft | 328 kts | 141° |
| 2026-05-04 01:55 | 33.82988 | -84.67264 | 13003 ft | 327 kts | 141° |
| 2026-05-04 01:56 | 33.81186 | -84.65572 | 13000 ft | 328 kts | 141° |
| 2026-05-04 01:56 | 33.79382 | -84.63879 | 13000 ft | 329 kts | 141° |
| 2026-05-04 01:56 | 33.77579 | -84.62188 | 13002 ft | 329 kts | 141° |
| 2026-05-04 01:56 | 33.75775 | -84.60489 | 13000 ft | 328 kts | 140° |